sensor_id;sensor_type;location;lat;lon;timestamp;pressure;altitude;pressure_sealevel;temperature;humidity
15694;BME280;7947;48.834;9.132;2023-06-19T00:02:23;97697.31;;;23.76;48.31
15694;BME280;7947;48.834;9.132;2023-06-19T00:05:25;97703.53;;;23.73;49.07
15694;BME280;7947;48.834;9.132;2023-06-19T00:08:30;97704.13;;;23.60;49.46
15694;BME280;7947;48.834;9.132;2023-06-19T00:11:33;97707.94;;;23.52;50.43
15694;BME280;7947;48.834;9.132;2023-06-19T00:14:36;97704.28;;;23.44;50.89
15694;BME280;7947;48.834;9.132;2023-06-19T00:17:39;97697.56;;;23.38;50.91
15694;BME280;7947;48.834;9.132;2023-06-19T00:20:43;97714.28;;;23.33;51.05
15694;BME280;7947;48.834;9.132;2023-06-19T00:23:48;97717.75;;;23.30;51.58
15694;BME280;7947;48.834;9.132;2023-06-19T00:26:51;97716.47;;;23.24;51.96
15694;BME280;7947;48.834;9.132;2023-06-19T00:29:54;97721.84;;;23.17;52.70
15694;BME280;7947;48.834;9.132;2023-06-19T00:32:58;97716.97;;;23.07;53.41
15694;BME280;7947;48.834;9.132;2023-06-19T00:36:09;97714.19;;;23.03;54.10
15694;BME280;7947;48.834;9.132;2023-06-19T00:39:13;97719.94;;;22.98;53.75
15694;BME280;7947;48.834;9.132;2023-06-19T00:42:16;97723.34;;;22.92;54.14
15694;BME280;7947;48.834;9.132;2023-06-19T00:45:19;97718.66;;;22.92;54.61
15694;BME280;7947;48.834;9.132;2023-06-19T00:48:22;97724.94;;;22.93;54.37
15694;BME280;7947;48.834;9.132;2023-06-19T00:51:25;97718.66;;;22.92;54.20
15694;BME280;7947;48.834;9.132;2023-06-19T00:54:29;97722.19;;;22.93;54.92
15694;BME280;7947;48.834;9.132;2023-06-19T00:57:33;97734.72;;;22.94;54.91
15694;BME280;7947;48.834;9.132;2023-06-19T01:00:36;97731.97;;;22.94;55.15
15694;BME280;7947;48.834;9.132;2023-06-19T01:03:38;97741.41;;;22.96;54.87
15694;BME280;7947;48.834;9.132;2023-06-19T01:06:46;97766.44;;;22.98;54.09
15694;BME280;7947;48.834;9.132;2023-06-19T01:09:59;97788.84;;;23.26;49.82
15694;BME280;7947;48.834;9.132;2023-06-19T01:13:07;97793.34;;;23.61;48.53
15694;BME280;7947;48.834;9.132;2023-06-19T01:16:11;97797.44;;;23.74;47.55
15694;BME280;7947;48.834;9.132;2023-06-19T01:19:18;97792.47;;;23.83;48.02
15694;BME280;7947;48.834;9.132;2023-06-19T01:22:27;97792.19;;;23.88;47.89
15694;BME280;7947;48.834;9.132;2023-06-19T01:25:30;97809.75;;;23.87;48.04
15694;BME280;7947;48.834;9.132;2023-06-19T01:28:33;97800.41;;;23.88;47.99
15694;BME280;7947;48.834;9.132;2023-06-19T01:31:45;97807.44;;;23.89;47.61
15694;BME280;7947;48.834;9.132;2023-06-19T01:34:52;97812.88;;;23.85;48.31
15694;BME280;7947;48.834;9.132;2023-06-19T01:37:59;97814.13;;;23.91;47.96
15694;BME280;7947;48.834;9.132;2023-06-19T01:41:04;97812.19;;;23.92;48.66
15694;BME280;7947;48.834;9.132;2023-06-19T01:44:09;97821.94;;;23.89;49.35
15694;BME280;7947;48.834;9.132;2023-06-19T01:47:13;97821.41;;;23.80;50.19
15694;BME280;7947;48.834;9.132;2023-06-19T01:50:21;97824.53;;;23.79;50.32
15694;BME280;7947;48.834;9.132;2023-06-19T01:53:26;97827.59;;;23.77;50.44
15694;BME280;7947;48.834;9.132;2023-06-19T01:56:30;97826.47;;;23.78;50.76
15694;BME280;7947;48.834;9.132;2023-06-19T01:59:33;97822.97;;;23.81;51.09
15694;BME280;7947;48.834;9.132;2023-06-19T02:02:37;97822.97;;;23.81;51.01
15694;BME280;7947;48.834;9.132;2023-06-19T02:05:40;97813.44;;;23.72;51.62
15694;BME280;7947;48.834;9.132;2023-06-19T02:08:44;97814.66;;;23.74;52.16
15694;BME280;7947;48.834;9.132;2023-06-19T02:11:47;97806.44;;;23.74;52.26
15694;BME280;7947;48.834;9.132;2023-06-19T02:14:50;97806.69;;;23.66;52.84
15694;BME280;7947;48.834;9.132;2023-06-19T02:17:55;97806.66;;;23.62;52.65
15694;BME280;7947;48.834;9.132;2023-06-19T02:20:58;97810.47;;;23.58;52.82
15694;BME280;7947;48.834;9.132;2023-06-19T02:24:03;97805.38;;;23.56;53.42
15694;BME280;7947;48.834;9.132;2023-06-19T02:27:06;97808.47;;;23.55;52.89
15694;BME280;7947;48.834;9.132;2023-06-19T02:30:10;97805.28;;;23.49;53.66
15694;BME280;7947;48.834;9.132;2023-06-19T02:33:13;97797.78;;;23.46;53.94
15694;BME280;7947;48.834;9.132;2023-06-19T02:36:16;97804.41;;;23.45;53.85
15694;BME280;7947;48.834;9.132;2023-06-19T02:39:22;97806.31;;;23.41;54.11
15694;BME280;7947;48.834;9.132;2023-06-19T02:42:25;97805.09;;;23.39;53.89
15694;BME280;7947;48.834;9.132;2023-06-19T02:45:28;97805.09;;;23.39;54.48
15694;BME280;7947;48.834;9.132;2023-06-19T02:48:31;97808.19;;;23.37;54.05
15694;BME280;7947;48.834;9.132;2023-06-19T02:51:34;97813.72;;;23.41;54.84
15694;BME280;7947;48.834;9.132;2023-06-19T02:54:38;97816.03;;;23.39;54.63
15694;BME280;7947;48.834;9.132;2023-06-19T02:57:41;97817.56;;;23.36;54.42
15694;BME280;7947;48.834;9.132;2023-06-19T03:00:44;97815.97;;;23.35;54.50
15694;BME280;7947;48.834;9.132;2023-06-19T03:03:47;97826.56;;;23.37;54.75
15694;BME280;7947;48.834;9.132;2023-06-19T03:06:49;97831.59;;;23.35;54.77
15694;BME280;7947;48.834;9.132;2023-06-19T03:09:54;97829.28;;;23.37;55.17
15694;BME280;7947;48.834;9.132;2023-06-19T03:12:56;97840.25;;;23.37;55.16
15694;BME280;7947;48.834;9.132;2023-06-19T03:16:00;97839.22;;;23.45;54.61
15694;BME280;7947;48.834;9.132;2023-06-19T03:19:03;97842.00;;;23.48;54.20
15694;BME280;7947;48.834;9.132;2023-06-19T03:22:06;97835.34;;;23.46;54.49
15694;BME280;7947;48.834;9.132;2023-06-19T03:25:10;97838.34;;;23.41;54.08
15694;BME280;7947;48.834;9.132;2023-06-19T03:28:13;97847.75;;;23.40;54.61
15694;BME280;7947;48.834;9.132;2023-06-19T03:31:15;97850.47;;;23.40;54.13
15694;BME280;7947;48.834;9.132;2023-06-19T03:34:18;97849.69;;;23.39;54.08
15694;BME280;7947;48.834;9.132;2023-06-19T03:37:21;97847.00;;;23.43;53.48
15694;BME280;7947;48.834;9.132;2023-06-19T03:40:25;97856.75;;;23.40;53.24
15694;BME280;7947;48.834;9.132;2023-06-19T03:43:31;97863.56;;;23.50;52.83
15694;BME280;7947;48.834;9.132;2023-06-19T03:46:33;97863.56;;;23.50;53.50
15694;BME280;7947;48.834;9.132;2023-06-19T03:49:36;97873.28;;;23.47;53.27
15694;BME280;7947;48.834;9.132;2023-06-19T03:52:39;97873.28;;;23.47;53.38
15694;BME280;7947;48.834;9.132;2023-06-19T03:55:43;97877.59;;;23.48;53.46
15694;BME280;7947;48.834;9.132;2023-06-19T03:58:47;97878.28;;;23.42;54.05
15694;BME280;7947;48.834;9.132;2023-06-19T04:01:49;97885.75;;;23.45;54.58
15694;BME280;7947;48.834;9.132;2023-06-19T04:04:52;97885.19;;;23.36;54.46
15694;BME280;7947;48.834;9.132;2023-06-19T04:07:55;97891.38;;;23.33;55.11
15694;BME280;7947;48.834;9.132;2023-06-19T04:10:59;97892.97;;;23.34;54.99
15694;BME280;7947;48.834;9.132;2023-06-19T04:14:02;97903.50;;;23.32;54.91
15694;BME280;7947;48.834;9.132;2023-06-19T04:17:05;97897.94;;;23.28;55.30
15694;BME280;7947;48.834;9.132;2023-06-19T04:20:09;97909.25;;;23.26;55.87
15694;BME280;7947;48.834;9.132;2023-06-19T04:23:13;97897.00;;;23.20;56.25
15694;BME280;7947;48.834;9.132;2023-06-19T04:26:17;97907.09;;;23.16;56.87
15694;BME280;7947;48.834;9.132;2023-06-19T04:29:22;97907.38;;;23.11;57.52
15694;BME280;7947;48.834;9.132;2023-06-19T04:32:25;97908.53;;;23.10;57.46
15694;BME280;7947;48.834;9.132;2023-06-19T04:35:28;97909.19;;;23.04;58.09
15694;BME280;7947;48.834;9.132;2023-06-19T04:38:31;97905.16;;;22.98;58.07
15694;BME280;7947;48.834;9.132;2023-06-19T04:41:35;97910.19;;;22.96;58.46
15694;BME280;7947;48.834;9.132;2023-06-19T04:44:40;97911.66;;;22.90;58.63
15694;BME280;7947;48.834;9.132;2023-06-19T04:47:42;97907.13;;;22.97;58.31
15694;BME280;7947;48.834;9.132;2023-06-19T04:50:54;97908.56;;;22.91;59.01
15694;BME280;7947;48.834;9.132;2023-06-19T04:53:58;97912.44;;;22.90;59.50
15694;BME280;7947;48.834;9.132;2023-06-19T04:57:02;97903.34;;;22.86;59.43
15694;BME280;7947;48.834;9.132;2023-06-19T05:00:06;97903.50;;;22.93;60.35
15694;BME280;7947;48.834;9.132;2023-06-19T05:03:11;97910.47;;;23.10;59.44
15694;BME280;7947;48.834;9.132;2023-06-19T05:06:15;97902.28;;;23.10;60.02
15694;BME280;7947;48.834;9.132;2023-06-19T05:09:18;97916.81;;;23.14;60.22
15694;BME280;7947;48.834;9.132;2023-06-19T05:12:23;97920.19;;;23.26;59.71
15694;BME280;7947;48.834;9.132;2023-06-19T05:15:26;97918.31;;;23.30;59.28
15694;BME280;7947;48.834;9.132;2023-06-19T05:18:29;97913.13;;;23.25;59.36
15694;BME280;7947;48.834;9.132;2023-06-19T05:21:32;97915.06;;;23.25;60.05
15694;BME280;7947;48.834;9.132;2023-06-19T05:24:35;97919.66;;;23.21;59.81
15694;BME280;7947;48.834;9.132;2023-06-19T05:27:39;97918.47;;;23.18;59.78
15694;BME280;7947;48.834;9.132;2023-06-19T05:30:42;97917.38;;;23.23;59.83
15694;BME280;7947;48.834;9.132;2023-06-19T05:33:46;97921.34;;;23.25;59.45
15694;BME280;7947;48.834;9.132;2023-06-19T05:36:48;97932.72;;;23.27;59.98
15694;BME280;7947;48.834;9.132;2023-06-19T05:39:51;97924.50;;;23.27;59.86
15694;BME280;7947;48.834;9.132;2023-06-19T05:42:55;97934.47;;;23.36;60.07
15694;BME280;7947;48.834;9.132;2023-06-19T05:45:58;97938.00;;;23.36;59.78
15694;BME280;7947;48.834;9.132;2023-06-19T05:49:01;97947.06;;;23.40;60.11
15694;BME280;7947;48.834;9.132;2023-06-19T05:52:04;97958.09;;;23.44;60.53
15694;BME280;7947;48.834;9.132;2023-06-19T05:55:08;97956.28;;;23.32;60.35
15694;BME280;7947;48.834;9.132;2023-06-19T05:58:12;97964.25;;;23.41;61.02
15694;BME280;7947;48.834;9.132;2023-06-19T06:01:15;97961.53;;;23.41;60.90
15694;BME280;7947;48.834;9.132;2023-06-19T06:04:19;97957.72;;;23.45;60.69
15694;BME280;7947;48.834;9.132;2023-06-19T06:07:23;97948.97;;;23.59;60.18
15694;BME280;7947;48.834;9.132;2023-06-19T06:10:29;97956.38;;;23.58;60.04
15694;BME280;7947;48.834;9.132;2023-06-19T06:13:33;97957.34;;;23.69;59.94
15694;BME280;7947;48.834;9.132;2023-06-19T06:16:37;97964.44;;;23.70;59.99
15694;BME280;7947;48.834;9.132;2023-06-19T06:19:40;97964.91;;;23.76;60.50
15694;BME280;7947;48.834;9.132;2023-06-19T06:22:42;97958.16;;;23.70;60.10
15694;BME280;7947;48.834;9.132;2023-06-19T06:25:45;97956.16;;;23.67;60.44
15694;BME280;7947;48.834;9.132;2023-06-19T06:28:50;97955.19;;;23.78;59.99
15694;BME280;7947;48.834;9.132;2023-06-19T06:32:02;97968.19;;;23.85;59.43
15694;BME280;7947;48.834;9.132;2023-06-19T06:35:07;97972.56;;;24.08;59.37
15694;BME280;7947;48.834;9.132;2023-06-19T06:38:09;97977.91;;;24.24;59.06
15694;BME280;7947;48.834;9.132;2023-06-19T06:41:12;97979.69;;;24.39;59.08
15694;BME280;7947;48.834;9.132;2023-06-19T06:44:16;97982.66;;;24.53;58.27
15694;BME280;7947;48.834;9.132;2023-06-19T06:47:19;97978.09;;;24.87;56.27
15694;BME280;7947;48.834;9.132;2023-06-19T06:50:22;97992.13;;;25.12;56.08
15694;BME280;7947;48.834;9.132;2023-06-19T06:53:26;97986.09;;;25.32;53.90
15694;BME280;7947;48.834;9.132;2023-06-19T06:56:29;97994.09;;;25.41;53.29
15694;BME280;7947;48.834;9.132;2023-06-19T06:59:33;97991.72;;;25.39;53.50
15694;BME280;7947;48.834;9.132;2023-06-19T07:02:37;97989.25;;;25.34;53.46
15694;BME280;7947;48.834;9.132;2023-06-19T07:05:40;97992.63;;;25.21;55.06
15694;BME280;7947;48.834;9.132;2023-06-19T07:08:43;97999.72;;;25.22;53.41
15694;BME280;7947;48.834;9.132;2023-06-19T07:11:49;98000.81;;;25.17;54.11
15694;BME280;7947;48.834;9.132;2023-06-19T07:14:55;98001.91;;;25.09;54.45
15694;BME280;7947;48.834;9.132;2023-06-19T07:17:58;98003.81;;;25.05;54.36
15694;BME280;7947;48.834;9.132;2023-06-19T07:21:01;97998.50;;;25.19;54.06
15694;BME280;7947;48.834;9.132;2023-06-19T07:24:06;98004.56;;;25.32;54.19
15694;BME280;7947;48.834;9.132;2023-06-19T07:27:09;98008.97;;;25.40;53.29
15694;BME280;7947;48.834;9.132;2023-06-19T07:30:14;98001.53;;;25.40;53.84
15694;BME280;7947;48.834;9.132;2023-06-19T07:33:21;98013.75;;;25.46;52.57
15694;BME280;7947;48.834;9.132;2023-06-19T07:36:24;98011.16;;;25.57;53.20
15694;BME280;7947;48.834;9.132;2023-06-19T07:39:26;98016.13;;;25.84;51.82
15694;BME280;7947;48.834;9.132;2023-06-19T07:42:29;98014.56;;;26.20;51.23
15694;BME280;7947;48.834;9.132;2023-06-19T07:45:33;98015.44;;;26.31;51.16
15694;BME280;7947;48.834;9.132;2023-06-19T07:48:36;98015.38;;;26.24;49.99
15694;BME280;7947;48.834;9.132;2023-06-19T07:51:39;98026.72;;;26.19;51.29
15694;BME280;7947;48.834;9.132;2023-06-19T07:54:49;98032.72;;;26.32;50.67
15694;BME280;7947;48.834;9.132;2023-06-19T07:57:52;98025.69;;;26.34;50.48
15694;BME280;7947;48.834;9.132;2023-06-19T08:00:59;98029.56;;;26.30;50.33
15694;BME280;7947;48.834;9.132;2023-06-19T08:04:02;98031.06;;;26.20;51.32
15694;BME280;7947;48.834;9.132;2023-06-19T08:07:05;98031.75;;;26.10;51.08
15694;BME280;7947;48.834;9.132;2023-06-19T08:10:09;98031.28;;;26.05;50.76
15694;BME280;7947;48.834;9.132;2023-06-19T08:13:15;98027.63;;;26.30;52.37
15694;BME280;7947;48.834;9.132;2023-06-19T08:16:19;98029.13;;;26.71;49.74
15694;BME280;7947;48.834;9.132;2023-06-19T08:19:22;98023.31;;;26.84;48.89
15694;BME280;7947;48.834;9.132;2023-06-19T08:22:25;98022.28;;;27.09;49.15
15694;BME280;7947;48.834;9.132;2023-06-19T08:25:28;98012.19;;;27.31;48.77
15694;BME280;7947;48.834;9.132;2023-06-19T08:28:31;98014.63;;;27.50;47.88
15694;BME280;7947;48.834;9.132;2023-06-19T08:31:36;98003.63;;;27.60;46.93
15694;BME280;7947;48.834;9.132;2023-06-19T08:34:39;98008.00;;;27.68;47.02
15694;BME280;7947;48.834;9.132;2023-06-19T08:37:44;98008.03;;;27.86;46.33
15694;BME280;7947;48.834;9.132;2023-06-19T08:40:46;98013.22;;;27.98;46.21
15694;BME280;7947;48.834;9.132;2023-06-19T08:43:49;98005.28;;;27.90;46.23
15694;BME280;7947;48.834;9.132;2023-06-19T08:46:54;98011.56;;;27.76;46.45
15694;BME280;7947;48.834;9.132;2023-06-19T08:49:57;98012.28;;;27.59;45.88
15694;BME280;7947;48.834;9.132;2023-06-19T08:53:03;97997.72;;;27.58;47.14
15694;BME280;7947;48.834;9.132;2023-06-19T08:56:05;97992.66;;;27.67;47.65
15694;BME280;7947;48.834;9.132;2023-06-19T08:59:09;97993.44;;;27.79;47.83
15694;BME280;7947;48.834;9.132;2023-06-19T09:02:14;97997.47;;;28.02;46.68
15694;BME280;7947;48.834;9.132;2023-06-19T09:05:18;98000.63;;;28.29;45.56
15694;BME280;7947;48.834;9.132;2023-06-19T09:08:22;97995.50;;;28.56;44.99
15694;BME280;7947;48.834;9.132;2023-06-19T09:11:26;97991.97;;;28.66;45.74
15694;BME280;7947;48.834;9.132;2023-06-19T09:14:33;97988.41;;;28.65;44.98
15694;BME280;7947;48.834;9.132;2023-06-19T09:17:38;97989.97;;;28.77;45.14
15694;BME280;7947;48.834;9.132;2023-06-19T09:20:42;97985.59;;;28.97;45.46
15694;BME280;7947;48.834;9.132;2023-06-19T09:23:46;97986.72;;;29.13;45.03
15694;BME280;7947;48.834;9.132;2023-06-19T09:26:50;97985.88;;;29.27;43.40
15694;BME280;7947;48.834;9.132;2023-06-19T09:29:53;97988.66;;;29.30;43.24
15694;BME280;7947;48.834;9.132;2023-06-19T09:33:06;97985.81;;;29.45;43.11
15694;BME280;7947;48.834;9.132;2023-06-19T09:36:10;97984.94;;;29.58;43.14
15694;BME280;7947;48.834;9.132;2023-06-19T09:39:18;97974.22;;;29.78;43.22
15694;BME280;7947;48.834;9.132;2023-06-19T09:42:26;97969.34;;;29.96;42.27
15694;BME280;7947;48.834;9.132;2023-06-19T09:45:30;97982.25;;;30.13;42.73
15694;BME280;7947;48.834;9.132;2023-06-19T09:48:41;97984.53;;;30.29;41.04
15694;BME280;7947;48.834;9.132;2023-06-19T09:51:44;97979.81;;;30.22;41.04
15694;BME280;7947;48.834;9.132;2023-06-19T09:54:47;97971.31;;;29.95;41.29
15694;BME280;7947;48.834;9.132;2023-06-19T09:57:51;97979.78;;;29.71;42.19
15694;BME280;7947;48.834;9.132;2023-06-19T10:00:55;97978.97;;;29.70;43.54
15694;BME280;7947;48.834;9.132;2023-06-19T10:04:03;97983.25;;;29.85;43.74
15694;BME280;7947;48.834;9.132;2023-06-19T10:07:15;97981.09;;;30.10;43.66
15694;BME280;7947;48.834;9.132;2023-06-19T10:10:23;97981.78;;;30.29;42.15
15694;BME280;7947;48.834;9.132;2023-06-19T10:13:32;97987.97;;;30.43;41.63
15694;BME280;7947;48.834;9.132;2023-06-19T10:16:35;97979.19;;;30.52;42.03
15694;BME280;7947;48.834;9.132;2023-06-19T10:19:49;97986.13;;;30.70;42.67
15694;BME280;7947;48.834;9.132;2023-06-19T10:22:55;97982.34;;;30.54;41.57
15694;BME280;7947;48.834;9.132;2023-06-19T10:26:00;97971.94;;;30.65;42.29
15694;BME280;7947;48.834;9.132;2023-06-19T10:29:14;97986.59;;;30.65;41.56
15694;BME280;7947;48.834;9.132;2023-06-19T10:32:17;97983.50;;;30.56;41.35
15694;BME280;7947;48.834;9.132;2023-06-19T10:35:21;97978.84;;;30.46;41.74
15694;BME280;7947;48.834;9.132;2023-06-19T10:38:26;97973.78;;;30.38;42.25
15694;BME280;7947;48.834;9.132;2023-06-19T10:41:29;97971.81;;;30.38;42.28
15694;BME280;7947;48.834;9.132;2023-06-19T10:44:34;97972.22;;;30.37;42.70
15694;BME280;7947;48.834;9.132;2023-06-19T10:47:39;97970.72;;;30.25;42.07
15694;BME280;7947;48.834;9.132;2023-06-19T10:50:44;97971.56;;;30.15;42.75
15694;BME280;7947;48.834;9.132;2023-06-19T10:53:46;97972.31;;;30.22;43.42
15694;BME280;7947;48.834;9.132;2023-06-19T10:56:49;97967.03;;;30.42;43.20
15694;BME280;7947;48.834;9.132;2023-06-19T10:59:52;97961.19;;;30.33;41.42
15694;BME280;7947;48.834;9.132;2023-06-19T11:02:56;97973.06;;;30.26;42.28
15694;BME280;7947;48.834;9.132;2023-06-19T11:06:00;97958.88;;;30.21;42.70
15694;BME280;7947;48.834;9.132;2023-06-19T11:09:03;97964.75;;;30.26;42.19
15694;BME280;7947;48.834;9.132;2023-06-19T11:12:08;97964.00;;;30.22;43.10
15694;BME280;7947;48.834;9.132;2023-06-19T11:15:12;97954.53;;;30.20;42.71
15694;BME280;7947;48.834;9.132;2023-06-19T11:18:16;97954.78;;;30.40;42.38
15694;BME280;7947;48.834;9.132;2023-06-19T11:21:20;97947.06;;;30.61;42.62
15694;BME280;7947;48.834;9.132;2023-06-19T11:24:23;97952.00;;;30.84;41.82
15694;BME280;7947;48.834;9.132;2023-06-19T11:27:26;97939.22;;;30.93;41.45
15694;BME280;7947;48.834;9.132;2023-06-19T11:30:30;97947.84;;;31.02;41.44
15694;BME280;7947;48.834;9.132;2023-06-19T11:33:34;97947.03;;;31.02;40.61
15694;BME280;7947;48.834;9.132;2023-06-19T11:36:38;97942.41;;;30.92;40.40
15694;BME280;7947;48.834;9.132;2023-06-19T11:39:43;97945.44;;;31.04;42.05
15694;BME280;7947;48.834;9.132;2023-06-19T11:42:47;97948.06;;;31.15;39.50
15694;BME280;7947;48.834;9.132;2023-06-19T11:45:51;97942.63;;;31.08;39.32
15694;BME280;7947;48.834;9.132;2023-06-19T11:48:55;97946.72;;;30.96;39.91
15694;BME280;7947;48.834;9.132;2023-06-19T11:52:09;97939.06;;;31.07;38.98
15694;BME280;7947;48.834;9.132;2023-06-19T11:55:13;97937.81;;;31.12;40.23
15694;BME280;7947;48.834;9.132;2023-06-19T11:58:15;97926.00;;;31.08;40.87
15694;BME280;7947;48.834;9.132;2023-06-19T12:01:19;97930.56;;;31.22;40.38
15694;BME280;7947;48.834;9.132;2023-06-19T12:04:22;97924.25;;;31.21;40.09
15694;BME280;7947;48.834;9.132;2023-06-19T12:07:26;97921.78;;;30.96;39.90
15694;BME280;7947;48.834;9.132;2023-06-19T12:10:29;97922.47;;;30.67;41.30
15694;BME280;7947;48.834;9.132;2023-06-19T12:13:32;97920.22;;;30.55;42.57
15694;BME280;7947;48.834;9.132;2023-06-19T12:16:35;97916.38;;;30.45;41.02
15694;BME280;7947;48.834;9.132;2023-06-19T12:19:38;97918.06;;;30.36;42.09
15694;BME280;7947;48.834;9.132;2023-06-19T12:22:42;97918.81;;;30.40;43.18
15694;BME280;7947;48.834;9.132;2023-06-19T12:25:45;97910.13;;;30.38;41.90
15694;BME280;7947;48.834;9.132;2023-06-19T12:28:48;97912.97;;;30.31;42.19
15694;BME280;7947;48.834;9.132;2023-06-19T12:31:59;97910.16;;;30.34;43.20
15694;BME280;7947;48.834;9.132;2023-06-19T12:35:03;97901.22;;;30.60;43.16
15694;BME280;7947;48.834;9.132;2023-06-19T12:38:09;97905.59;;;30.91;42.33
15694;BME280;7947;48.834;9.132;2023-06-19T12:41:11;97909.59;;;31.21;40.69
15694;BME280;7947;48.834;9.132;2023-06-19T12:44:14;97905.47;;;31.32;40.29
15694;BME280;7947;48.834;9.132;2023-06-19T12:47:17;97904.16;;;31.44;39.88
15694;BME280;7947;48.834;9.132;2023-06-19T12:50:20;97904.31;;;31.60;39.94
15694;BME280;7947;48.834;9.132;2023-06-19T12:53:25;97906.09;;;31.73;39.49
15694;BME280;7947;48.834;9.132;2023-06-19T12:56:31;97902.50;;;31.76;39.40
15694;BME280;7947;48.834;9.132;2023-06-19T12:59:33;97906.16;;;31.70;39.45
15694;BME280;7947;48.834;9.132;2023-06-19T13:02:36;97897.03;;;31.69;39.51
15694;BME280;7947;48.834;9.132;2023-06-19T13:05:39;97893.69;;;31.81;40.25
15694;BME280;7947;48.834;9.132;2023-06-19T13:08:43;97888.78;;;31.92;38.89
15694;BME280;7947;48.834;9.132;2023-06-19T13:11:46;97888.22;;;31.78;38.90
15694;BME280;7947;48.834;9.132;2023-06-19T13:14:51;97885.03;;;31.53;39.48
15694;BME280;7947;48.834;9.132;2023-06-19T13:17:54;97881.13;;;31.20;39.25
15694;BME280;7947;48.834;9.132;2023-06-19T13:20:56;97873.06;;;31.29;39.68
15694;BME280;7947;48.834;9.132;2023-06-19T13:24:01;97869.03;;;31.37;39.39
15694;BME280;7947;48.834;9.132;2023-06-19T13:27:04;97872.06;;;31.16;39.35
15694;BME280;7947;48.834;9.132;2023-06-19T13:30:07;97872.31;;;31.25;38.50
15694;BME280;7947;48.834;9.132;2023-06-19T13:33:10;97872.50;;;31.11;38.10
15694;BME280;7947;48.834;9.132;2023-06-19T13:36:13;97858.53;;;31.22;38.73
15694;BME280;7947;48.834;9.132;2023-06-19T13:39:17;97853.03;;;30.88;38.70
15694;BME280;7947;48.834;9.132;2023-06-19T13:42:21;97850.31;;;30.84;40.04
15694;BME280;7947;48.834;9.132;2023-06-19T13:45:24;97851.41;;;30.90;39.67
15694;BME280;7947;48.834;9.132;2023-06-19T13:48:27;97851.47;;;30.87;41.04
15694;BME280;7947;48.834;9.132;2023-06-19T13:51:30;97851.47;;;30.87;40.80
15694;BME280;7947;48.834;9.132;2023-06-19T13:54:35;97851.78;;;30.92;40.98
15694;BME280;7947;48.834;9.132;2023-06-19T13:57:40;97841.56;;;30.89;40.17
15694;BME280;7947;48.834;9.132;2023-06-19T14:00:42;97844.63;;;30.95;40.44
15694;BME280;7947;48.834;9.132;2023-06-19T14:03:45;97832.78;;;30.94;39.26
15694;BME280;7947;48.834;9.132;2023-06-19T14:06:48;97831.19;;;30.93;40.64
15694;BME280;7947;48.834;9.132;2023-06-19T14:09:52;97822.22;;;30.82;39.34
15694;BME280;7947;48.834;9.132;2023-06-19T14:12:55;97825.72;;;30.53;39.90
15694;BME280;7947;48.834;9.132;2023-06-19T14:15:58;97819.69;;;30.31;40.73
15694;BME280;7947;48.834;9.132;2023-06-19T14:19:01;97808.69;;;30.20;40.92
15694;BME280;7947;48.834;9.132;2023-06-19T14:22:04;97809.13;;;30.15;41.46
15694;BME280;7947;48.834;9.132;2023-06-19T14:25:09;97812.66;;;30.19;41.00
15694;BME280;7947;48.834;9.132;2023-06-19T14:28:12;97803.63;;;30.49;41.82
15694;BME280;7947;48.834;9.132;2023-06-19T14:31:15;97801.38;;;30.71;40.10
15694;BME280;7947;48.834;9.132;2023-06-19T14:34:18;97806.81;;;30.48;40.67
15694;BME280;7947;48.834;9.132;2023-06-19T14:37:21;97810.75;;;30.50;41.27
15694;BME280;7947;48.834;9.132;2023-06-19T14:40:25;97805.25;;;30.47;41.60
15694;BME280;7947;48.834;9.132;2023-06-19T14:43:28;97794.84;;;30.58;41.31
15694;BME280;7947;48.834;9.132;2023-06-19T14:46:34;97794.19;;;30.77;40.61
15694;BME280;7947;48.834;9.132;2023-06-19T14:49:40;97792.41;;;30.93;40.81
15694;BME280;7947;48.834;9.132;2023-06-19T14:52:43;97789.69;;;31.17;40.75
15694;BME280;7947;48.834;9.132;2023-06-19T14:55:47;97777.13;;;31.39;40.05
15694;BME280;7947;48.834;9.132;2023-06-19T14:58:50;97782.81;;;31.55;39.60
15694;BME280;7947;48.834;9.132;2023-06-19T15:01:53;97777.91;;;31.62;39.55
15694;BME280;7947;48.834;9.132;2023-06-19T15:04:56;97780.56;;;31.20;38.37
15694;BME280;7947;48.834;9.132;2023-06-19T15:08:07;97776.63;;;31.17;39.15
15694;BME280;7947;48.834;9.132;2023-06-19T15:11:12;97771.75;;;31.25;40.00
15694;BME280;7947;48.834;9.132;2023-06-19T15:14:15;97772.75;;;31.11;38.98
15694;BME280;7947;48.834;9.132;2023-06-19T15:17:18;97756.00;;;30.95;39.30
15694;BME280;7947;48.834;9.132;2023-06-19T15:20:21;97755.84;;;30.75;40.22
15694;BME280;7947;48.834;9.132;2023-06-19T15:23:24;97760.59;;;30.75;40.80
15694;BME280;7947;48.834;9.132;2023-06-19T15:26:28;97756.94;;;30.81;39.60
15694;BME280;7947;48.834;9.132;2023-06-19T15:29:31;97751.59;;;30.67;39.58
15694;BME280;7947;48.834;9.132;2023-06-19T15:32:34;97750.53;;;30.58;39.50
15694;BME280;7947;48.834;9.132;2023-06-19T15:35:36;97749.84;;;30.50;39.90
15694;BME280;7947;48.834;9.132;2023-06-19T15:38:39;97744.81;;;30.04;39.92
15694;BME280;7947;48.834;9.132;2023-06-19T15:41:44;97753.59;;;29.99;40.50
15694;BME280;7947;48.834;9.132;2023-06-19T15:44:47;97750.84;;;29.96;40.80
15694;BME280;7947;48.834;9.132;2023-06-19T15:47:50;97749.72;;;29.90;41.86
15694;BME280;7947;48.834;9.132;2023-06-19T15:50:53;97759.28;;;29.82;42.52
15694;BME280;7947;48.834;9.132;2023-06-19T15:53:56;97765.72;;;29.68;42.25
15694;BME280;7947;48.834;9.132;2023-06-19T15:57:00;97769.34;;;29.58;42.40
15694;BME280;7947;48.834;9.132;2023-06-19T16:00:04;97773.69;;;29.59;43.07
15694;BME280;7947;48.834;9.132;2023-06-19T16:03:07;97787.53;;;29.59;43.60
15694;BME280;7947;48.834;9.132;2023-06-19T16:06:10;97787.56;;;29.56;43.67
15694;BME280;7947;48.834;9.132;2023-06-19T16:09:13;97791.44;;;29.62;44.62
15694;BME280;7947;48.834;9.132;2023-06-19T16:12:17;97788.66;;;29.62;44.01
15694;BME280;7947;48.834;9.132;2023-06-19T16:15:20;97780.38;;;29.65;45.00
15694;BME280;7947;48.834;9.132;2023-06-19T16:18:29;97775.75;;;29.52;45.31
15694;BME280;7947;48.834;9.132;2023-06-19T16:21:31;97769.03;;;29.49;45.14
15694;BME280;7947;48.834;9.132;2023-06-19T16:24:34;97770.66;;;29.43;45.33
15694;BME280;7947;48.834;9.132;2023-06-19T16:27:41;97768.31;;;29.42;45.71